createdAt,value
2023-04-15T00:00:35.292Z,4.90
2023-04-15T00:02:38.799Z,5.25
2023-04-15T00:04:42.243Z,6.30
2023-04-15T00:06:53.031Z,5.38
2023-04-15T00:08:56.194Z,5.72
2023-04-15T00:11:02.902Z,5.35
2023-04-15T00:13:07.610Z,5.70
2023-04-15T00:15:12.544Z,5.55
2023-04-15T00:17:15.686Z,6.60
2023-04-15T00:19:19.149Z,6.70
2023-04-15T00:21:22.363Z,6.05
2023-04-15T00:23:26.037Z,5.15
2023-04-15T00:25:29.372Z,5.70
2023-04-15T00:27:32.670Z,5.30
2023-04-15T00:29:37.274Z,5.20
2023-04-15T00:31:40.538Z,5.45
2023-04-15T00:33:43.695Z,4.80
2023-04-15T00:35:46.865Z,6.20
2023-04-15T00:37:50.102Z,5.10
2023-04-15T00:39:53.120Z,6.10
2023-04-15T00:41:57.426Z,5.45
2023-04-15T00:44:00.786Z,7.82
2023-04-15T00:46:06.135Z,6.45
2023-04-15T00:48:09.489Z,5.20
2023-04-15T00:50:13.092Z,5.43
2023-04-15T00:52:16.204Z,7.50
2023-04-15T00:54:19.432Z,6.13
2023-04-15T00:56:24.391Z,5.80
2023-04-15T00:58:29.130Z,5.18
2023-04-15T01:00:35.943Z,5.07
2023-04-15T01:02:41.162Z,4.82
2023-04-15T01:04:44.575Z,5.40
2023-04-15T01:06:47.657Z,5.13
2023-04-15T01:08:50.935Z,5.65
2023-04-15T01:10:54.138Z,5.28
2023-04-15T01:12:57.203Z,5.85
2023-04-15T01:15:02.355Z,5.20
2023-04-15T01:17:05.527Z,5.53
2023-04-15T01:19:12.170Z,5.47
2023-04-15T01:21:15.348Z,5.10
2023-04-15T01:23:18.659Z,5.05
2023-04-15T01:25:32.124Z,5.20
2023-04-15T01:27:36.465Z,6.13
2023-04-15T01:29:40.020Z,5.13
2023-04-15T01:31:50.920Z,4.72
2023-04-15T01:34:12.877Z,4.88
2023-04-15T01:36:34.227Z,5.13
2023-04-15T01:38:37.701Z,4.60
2023-04-15T01:40:42.112Z,4.75
2023-04-15T01:42:46.772Z,4.60
2023-04-15T01:44:53.711Z,5.07
2023-04-15T01:46:58.641Z,5.13
2023-04-15T01:49:06.534Z,4.53
2023-04-15T01:51:11.469Z,5.05
2023-04-15T01:53:15.895Z,4.82
2023-04-15T01:55:20.541Z,5.32
2023-04-15T01:57:26.459Z,5.30
2023-04-15T01:59:32.212Z,4.93
2023-04-15T02:01:36.960Z,4.80
2023-04-15T02:03:41.411Z,4.50
2023-04-15T02:05:46.041Z,5.00
2023-04-15T02:07:50.505Z,5.15
2023-04-15T02:09:55.013Z,4.45
2023-04-15T02:11:59.486Z,4.30
2023-04-15T02:14:05.808Z,4.50
2023-04-15T02:16:17.733Z,4.63
2023-04-15T02:18:22.570Z,4.90
2023-04-15T02:20:26.888Z,4.90
2023-04-15T02:22:31.334Z,4.72
2023-04-15T02:24:35.904Z,4.90
2023-04-15T02:26:40.709Z,4.40
2023-04-15T02:28:45.071Z,4.85
2023-04-15T02:30:54.819Z,4.65
2023-04-15T02:33:01.571Z,4.70
2023-04-15T02:35:06.860Z,4.50
2023-04-15T02:37:13.893Z,4.55
2023-04-15T02:39:18.794Z,4.50
2023-04-15T02:41:27.185Z,4.75
2023-04-15T02:43:31.624Z,4.95
2023-04-15T02:45:36.035Z,4.63
2023-04-15T02:47:44.499Z,4.20
2023-04-15T02:49:49.745Z,5.57
2023-04-15T02:51:54.088Z,4.60
2023-04-15T02:53:59.614Z,4.70
2023-04-15T02:56:04.532Z,4.65
2023-04-15T02:58:08.845Z,5.30
2023-04-15T03:00:14.495Z,4.88
2023-04-15T03:02:20.965Z,4.72
2023-04-15T03:04:26.668Z,4.70
2023-04-15T03:06:31.063Z,4.80
2023-04-15T03:08:35.553Z,4.60
2023-04-15T03:10:39.866Z,4.80
2023-04-15T03:12:45.209Z,4.95
2023-04-15T03:14:54.271Z,5.50
2023-04-15T03:17:04.017Z,6.18
2023-04-15T03:19:08.430Z,5.10
2023-04-15T03:21:14.202Z,4.85
2023-04-15T03:23:18.650Z,6.13
2023-04-15T03:25:22.973Z,5.18
2023-04-15T03:27:27.302Z,5.10
2023-04-15T03:29:34.601Z,5.97
2023-04-15T03:31:38.902Z,5.75
2023-04-15T03:33:43.187Z,5.70
2023-04-15T03:35:47.609Z,4.95
2023-04-15T03:37:53.300Z,5.47
2023-04-15T03:39:57.633Z,5.80
2023-04-15T03:42:03.477Z,5.85
2023-04-15T03:44:07.731Z,4.93
2023-04-15T03:46:12.077Z,5.90
2023-04-15T03:48:18.150Z,5.55
2023-04-15T03:50:22.993Z,5.40
2023-04-15T03:52:27.285Z,5.00
2023-04-15T03:54:32.874Z,4.95
2023-04-15T03:56:37.126Z,5.03
2023-04-15T03:58:41.557Z,4.18
2023-04-15T04:00:45.918Z,4.53
2023-04-15T04:02:50.756Z,4.50
2023-04-15T04:04:55.826Z,4.47
2023-04-15T04:07:00.171Z,4.10
2023-04-15T04:09:04.565Z,3.83
2023-04-15T04:11:10.241Z,4.05
2023-04-15T04:13:14.563Z,3.90
2023-04-15T04:15:19.009Z,4.35
2023-04-15T04:17:23.594Z,4.00
2023-04-15T04:19:27.922Z,4.30
2023-04-15T04:21:34.164Z,4.10
2023-04-15T04:23:38.652Z,3.88
2023-04-15T04:25:43.740Z,4.40
2023-04-15T04:27:49.422Z,4.60
2023-04-15T04:29:53.756Z,4.68
2023-04-15T04:31:58.050Z,4.30
2023-04-15T04:34:02.307Z,4.38
2023-04-15T04:36:07.991Z,4.13
2023-04-15T04:38:12.334Z,3.85
2023-04-15T04:40:17.155Z,4.60
2023-04-15T04:42:21.469Z,4.13
2023-04-15T04:44:27.172Z,4.18
2023-04-15T04:46:31.625Z,4.90
2023-04-15T04:48:35.962Z,4.45
2023-04-15T04:50:40.213Z,4.28
2023-04-15T04:52:44.550Z,4.28
2023-04-15T04:54:48.879Z,4.50
2023-04-15T04:56:53.265Z,4.28
2023-04-15T04:58:57.706Z,4.50
2023-04-15T05:01:03.923Z,4.50
2023-04-15T05:03:08.575Z,4.65
2023-04-15T05:05:13.474Z,4.05
2023-04-15T05:07:17.836Z,3.92
2023-04-15T05:09:22.133Z,4.38
2023-04-15T05:11:26.683Z,4.20
2023-04-15T05:13:31.153Z,4.78
2023-04-15T05:15:37.071Z,3.90
2023-04-15T05:17:44.723Z,4.32
2023-04-15T05:19:49.087Z,4.03
2023-04-15T05:21:53.419Z,4.28
2023-04-15T05:23:58.219Z,4.50
2023-04-15T05:26:02.517Z,4.22
2023-04-15T05:28:07.242Z,4.47
2023-04-15T05:30:13.822Z,4.72
2023-04-15T05:32:18.570Z,4.25
2023-04-15T05:34:24.354Z,5.07
2023-04-15T05:36:29.136Z,3.97
2023-04-15T05:38:33.640Z,4.90
2023-04-15T05:40:38.210Z,4.38
2023-04-15T05:42:42.500Z,4.50
2023-04-15T05:44:46.873Z,4.47
2023-04-15T05:46:51.228Z,4.20
2023-04-15T05:48:56.575Z,4.43
2023-04-15T05:51:02.622Z,5.07
2023-04-15T05:53:07.248Z,6.30
2023-04-15T05:55:11.885Z,5.70
2023-04-15T05:57:16.230Z,5.75
2023-04-15T05:59:20.625Z,5.22
2023-04-15T06:01:25.380Z,6.10
2023-04-15T06:03:29.905Z,6.43
2023-04-15T06:05:36.655Z,4.75
2023-04-15T06:07:44.239Z,4.50
2023-04-15T06:09:49.543Z,4.47
2023-04-15T06:11:54.812Z,4.20
2023-04-15T06:13:59.153Z,4.22
2023-04-15T06:16:04.128Z,4.20
2023-04-15T06:18:08.444Z,4.97
2023-04-15T06:20:14.320Z,5.15
2023-04-15T06:22:18.850Z,4.65
2023-04-15T06:24:24.609Z,4.80
2023-04-15T06:26:29.238Z,4.50
2023-04-15T06:28:33.604Z,4.88
2023-04-15T06:30:38.556Z,4.20
2023-04-15T06:32:42.873Z,5.00
2023-04-15T06:34:47.294Z,4.43
2023-04-15T06:36:51.664Z,4.87
2023-04-15T06:38:56.608Z,4.80
2023-04-15T06:41:02.364Z,4.23
2023-04-15T06:43:06.678Z,4.37
2023-04-15T06:45:12.120Z,4.90
2023-04-15T06:47:16.680Z,4.90
2023-04-15T06:49:20.990Z,4.73
2023-04-15T06:51:26.743Z,5.47
2023-04-15T06:53:31.266Z,5.70
2023-04-15T06:55:35.558Z,5.87
2023-04-15T06:57:41.517Z,5.30
2023-04-15T06:59:46.148Z,6.27
2023-04-15T07:01:50.642Z,5.63
2023-04-15T07:03:55.109Z,5.87
2023-04-15T07:05:59.823Z,6.00
2023-04-15T07:08:04.264Z,6.47
2023-04-15T07:10:10.097Z,5.70
2023-04-15T07:12:14.470Z,7.03
2023-04-15T07:14:20.271Z,5.63
2023-04-15T07:16:24.718Z,5.50
2023-04-15T07:18:29.042Z,5.10
2023-04-15T07:20:33.429Z,5.53
2023-04-15T07:22:37.822Z,5.03
2023-04-15T07:24:42.623Z,5.50
2023-04-15T07:26:47.152Z,4.90
2023-04-15T07:28:51.484Z,4.63
2023-04-15T07:30:58.178Z,5.07
2023-04-15T07:33:02.960Z,4.70
2023-04-15T07:35:07.818Z,5.03
2023-04-15T07:37:12.655Z,4.97
2023-04-15T07:39:17.068Z,5.00
2023-04-15T07:41:21.782Z,4.27
2023-04-15T07:43:26.212Z,5.50
2023-04-15T07:45:30.602Z,9.47
2023-04-15T07:47:36.382Z,4.60
2023-04-15T07:49:40.937Z,4.87
2023-04-15T07:51:45.365Z,5.50
2023-04-15T07:53:50.779Z,4.43
2023-04-15T07:55:55.207Z,4.20
2023-04-15T07:57:59.772Z,4.57
2023-04-15T08:00:07.591Z,4.90
2023-04-15T08:02:18.458Z,4.77
2023-04-15T08:04:24.602Z,5.70
2023-04-15T08:06:29.072Z,5.03
2023-04-15T08:08:33.337Z,4.87
2023-04-15T08:10:38.776Z,5.47
2023-04-15T08:12:43.649Z,4.90
2023-04-15T08:14:48.075Z,4.70
2023-04-15T08:16:52.515Z,5.33
2023-04-15T08:18:57.740Z,4.77
2023-04-15T08:21:03.538Z,4.77
2023-04-15T08:23:07.876Z,4.87
2023-04-15T08:25:12.220Z,5.63
2023-04-15T08:27:16.585Z,5.20
2023-04-15T08:29:21.097Z,5.67
2023-04-15T08:31:27.426Z,5.13
2023-04-15T08:33:31.852Z,5.40
2023-04-15T08:35:36.204Z,5.60
2023-04-15T08:37:42.725Z,5.20
2023-04-15T08:39:47.035Z,5.30
2023-04-15T08:41:53.872Z,5.27
2023-04-15T08:43:59.830Z,5.40
2023-04-15T08:46:05.692Z,5.20
2023-04-15T08:48:11.444Z,5.30
2023-04-15T08:50:15.973Z,5.30
2023-04-15T08:52:21.020Z,5.93
2023-04-15T08:54:27.084Z,5.80
2023-04-15T08:56:33.809Z,6.00
2023-04-15T08:58:38.456Z,5.70
2023-04-15T09:00:43.288Z,5.57
2023-04-15T09:02:47.838Z,5.10
2023-04-15T09:04:52.497Z,5.20
2023-04-15T09:06:57.319Z,5.13
2023-04-15T09:09:01.939Z,5.77
2023-04-15T09:11:08.330Z,4.57
2023-04-15T09:13:13.071Z,6.00
2023-04-15T09:15:17.711Z,4.93
2023-04-15T09:17:22.365Z,6.20
2023-04-15T09:19:27.190Z,5.20
2023-04-15T09:21:33.869Z,4.97
2023-04-15T09:23:39.275Z,6.27
2023-04-15T09:25:43.836Z,7.13
2023-04-15T09:27:51.082Z,7.13
2023-04-15T09:29:55.484Z,5.50
2023-04-15T09:32:11.070Z,5.57
2023-04-15T09:34:15.337Z,5.33
2023-04-15T09:36:20.090Z,4.33
2023-04-15T09:38:24.841Z,4.40
2023-04-15T09:40:37.168Z,4.20
2023-04-15T09:42:58.103Z,4.20
2023-04-15T09:45:10.199Z,3.97
2023-04-15T09:47:29.347Z,3.67
2023-04-15T09:49:34.232Z,3.43
2023-04-15T09:51:38.733Z,3.37
2023-04-15T09:53:43.035Z,3.77
2023-04-15T09:55:48.976Z,3.90
2023-04-15T09:57:53.624Z,3.30
2023-04-15T09:59:59.557Z,3.20
2023-04-15T10:02:06.366Z,3.50
2023-04-15T10:04:11.677Z,4.00
2023-04-15T10:06:16.402Z,4.07
2023-04-15T10:08:22.385Z,4.50
2023-04-15T10:10:27.479Z,3.87
2023-04-15T10:12:33.513Z,4.10
2023-04-15T10:14:39.609Z,4.33
2023-04-15T10:16:49.550Z,4.43
2023-04-15T10:18:56.906Z,4.43
2023-04-15T10:21:02.245Z,4.40
2023-04-15T10:23:09.533Z,4.80
2023-04-15T10:25:16.824Z,4.50
2023-04-15T10:27:22.121Z,4.70
2023-04-15T10:29:27.239Z,3.90
2023-04-15T10:31:31.877Z,4.50
2023-04-15T10:33:39.158Z,4.70
2023-04-15T10:35:44.093Z,4.93
2023-04-15T10:37:48.382Z,5.20
2023-04-15T10:39:52.818Z,4.73
2023-04-15T10:42:09.676Z,4.97
2023-04-15T10:44:13.933Z,5.50
2023-04-15T10:46:24.018Z,5.67
2023-04-15T10:48:28.469Z,5.23
2023-04-15T10:50:34.765Z,5.63
2023-04-15T10:52:41.966Z,5.63
2023-04-15T10:54:46.740Z,4.97
2023-04-15T10:56:53.141Z,5.77
2023-04-15T10:58:57.473Z,6.07
2023-04-15T11:01:04.474Z,5.07
2023-04-15T11:03:09.783Z,5.90
2023-04-15T11:05:14.844Z,5.43
2023-04-15T11:07:39.294Z,5.77
2023-04-15T11:09:43.587Z,5.67
2023-04-15T11:12:17.699Z,5.83
2023-04-15T11:14:22.148Z,5.20
2023-04-15T11:16:27.207Z,5.17
2023-04-15T11:18:33.065Z,5.00
2023-04-15T11:20:37.748Z,5.23
2023-04-15T11:22:49.542Z,4.80
2023-04-15T11:24:53.880Z,5.03
2023-04-15T11:26:59.797Z,5.23
2023-04-15T11:29:05.303Z,5.47
2023-04-15T11:31:12.342Z,5.30
2023-04-15T11:33:16.635Z,5.87
2023-04-15T11:35:23.775Z,5.07
2023-04-15T11:37:31.694Z,5.20
2023-04-15T11:39:38.524Z,5.00
2023-04-15T11:41:44.073Z,4.87
2023-04-15T11:43:48.424Z,5.07
2023-04-15T11:45:54.225Z,6.47
2023-04-15T11:48:06.881Z,5.47
2023-04-15T11:50:18.582Z,4.47
2023-04-15T11:52:21.835Z,5.30
2023-04-15T11:54:25.138Z,5.00
2023-04-15T11:56:29.922Z,4.43
2023-04-15T11:58:32.991Z,4.00
2023-04-15T12:00:36.618Z,4.37
2023-04-15T12:02:40.834Z,3.80
2023-04-15T12:04:44.249Z,4.53
2023-04-15T12:06:47.449Z,4.20
2023-04-15T12:08:50.915Z,3.87
2023-04-15T12:11:00.292Z,4.47
2023-04-15T12:13:09.136Z,4.40
2023-04-15T12:15:12.234Z,4.40
2023-04-15T12:17:15.398Z,3.87
2023-04-15T12:19:20.284Z,5.30
2023-04-15T12:21:24.759Z,4.70
2023-04-15T12:23:28.044Z,4.10
2023-04-15T12:25:37.645Z,4.47
2023-04-15T12:27:40.795Z,4.77
2023-04-15T12:29:45.306Z,4.77
2023-04-15T12:31:50.700Z,5.73
2023-04-15T12:33:56.407Z,5.23
2023-04-15T12:35:59.516Z,4.00
2023-04-15T12:38:02.646Z,4.70
2023-04-15T12:40:10.029Z,3.90
2023-04-15T12:42:13.830Z,4.10
2023-04-15T12:44:17.326Z,3.40
2023-04-15T12:46:21.897Z,3.00
2023-04-15T12:48:25.445Z,2.40
2023-04-15T12:50:28.507Z,2.10
2023-04-15T12:52:31.545Z,2.80
2023-04-15T12:54:36.033Z,2.87
2023-04-15T12:56:39.222Z,2.60
2023-04-15T12:58:42.330Z,2.23
2023-04-15T13:00:45.694Z,2.10
2023-04-15T13:02:50.534Z,2.37
2023-04-15T13:04:53.785Z,2.27
2023-04-15T13:06:56.986Z,2.33
2023-04-15T13:09:01.896Z,2.43
2023-04-15T13:11:05.939Z,2.10
2023-04-15T13:13:09.573Z,1.80
2023-04-15T13:15:13.176Z,1.80
2023-04-15T13:17:17.493Z,2.53
2023-04-15T13:19:21.999Z,7.17
2023-04-15T13:21:25.605Z,2.87
2023-04-15T13:23:28.826Z,2.60
2023-04-15T13:25:32.131Z,1.30
2023-04-15T13:27:35.371Z,1.10
2023-04-15T13:29:38.703Z,1.10
2023-04-15T13:31:41.821Z,1.60
2023-04-15T13:33:44.970Z,1.13
2023-04-15T13:35:49.480Z,1.00
2023-04-15T13:37:52.757Z,1.40
2023-04-15T13:39:56.614Z,1.30
2023-04-15T13:41:59.639Z,1.40
2023-04-15T13:44:03.052Z,1.30
2023-04-15T13:46:06.753Z,1.40
2023-04-15T13:48:09.822Z,1.50
2023-04-15T13:50:13.261Z,1.40
2023-04-15T13:52:17.671Z,1.60
2023-04-15T13:54:20.760Z,1.90
2023-04-15T13:56:24.064Z,1.43
2023-04-15T13:58:27.144Z,1.50
2023-04-15T14:00:30.426Z,1.47
2023-04-15T14:02:33.587Z,1.27
2023-04-15T14:04:36.837Z,1.70
2023-04-15T14:06:39.950Z,1.57
2023-04-15T14:08:44.529Z,1.40
2023-04-15T14:10:48.477Z,1.77
2023-04-15T14:12:51.607Z,1.50
2023-04-15T14:14:54.759Z,1.40
2023-04-15T14:16:58.822Z,1.20
2023-04-15T14:19:02.863Z,1.60
2023-04-15T14:21:07.378Z,1.37
2023-04-15T14:23:10.513Z,1.80
2023-04-15T14:25:23.139Z,1.57
2023-04-15T14:27:33.769Z,1.53
2023-04-15T14:29:36.799Z,1.80
2023-04-15T14:31:40.059Z,1.90
2023-04-15T14:33:44.682Z,1.97
2023-04-15T14:35:47.794Z,1.80
2023-04-15T14:37:50.934Z,1.50
2023-04-15T14:39:53.936Z,1.57
2023-04-15T14:41:58.586Z,1.30
2023-04-15T14:44:01.769Z,1.43
2023-04-15T14:46:05.089Z,1.50
2023-04-15T14:48:09.894Z,1.70
2023-04-15T14:50:13.101Z,2.10
2023-04-15T14:52:16.130Z,1.60
2023-04-15T14:54:21.164Z,1.37
2023-04-15T14:56:25.463Z,1.90
2023-04-15T14:58:30.132Z,1.50
2023-04-15T15:00:33.199Z,1.33
2023-04-15T15:02:39.737Z,2.20
2023-04-15T15:04:43.788Z,2.57
2023-04-15T15:06:49.132Z,2.50
2023-04-15T15:08:52.416Z,2.10
2023-04-15T15:10:55.604Z,1.43
2023-04-15T15:12:58.662Z,1.40
2023-04-15T15:15:12.345Z,1.50
2023-04-15T15:17:19.602Z,1.70
2023-04-15T15:19:23.635Z,1.70
2023-04-15T15:21:27.160Z,1.80
2023-04-15T15:23:30.385Z,1.70
2023-04-15T15:25:33.440Z,1.70
2023-04-15T15:27:38.249Z,1.90
2023-04-15T15:29:41.425Z,1.87
2023-04-15T15:31:45.943Z,1.90
2023-04-15T15:33:49.111Z,1.90
2023-04-15T15:35:52.499Z,1.60
2023-04-15T15:37:56.020Z,2.00
2023-04-15T15:39:59.310Z,1.73
2023-04-15T15:42:02.480Z,1.80
2023-04-15T15:44:05.700Z,2.37
2023-04-15T15:46:08.905Z,2.37
2023-04-15T15:48:13.996Z,2.00
2023-04-15T15:50:17.197Z,2.97
2023-04-15T15:52:20.395Z,3.10
2023-04-15T15:54:23.575Z,3.00
2023-04-15T15:56:27.032Z,2.37
2023-04-15T15:58:31.723Z,2.50
2023-04-15T16:00:34.880Z,2.30
2023-04-15T16:03:04.390Z,2.37
2023-04-15T16:05:02.610Z,4.50
2023-04-15T16:07:05.909Z,6.50
2023-04-15T16:09:09.002Z,3.80
2023-04-15T16:11:12.256Z,3.10
2023-04-15T16:13:15.371Z,3.80
2023-04-15T16:15:18.500Z,2.73
2023-04-15T16:17:21.673Z,5.00
2023-04-15T16:19:24.857Z,2.90
2023-04-15T16:21:29.390Z,8.23
2023-04-15T16:23:32.610Z,3.57
2023-04-15T16:25:36.026Z,7.70
2023-04-15T16:29:45.602Z,7.40
2023-04-15T16:31:49.141Z,7.27
2023-04-15T16:33:52.352Z,6.27
2023-04-15T16:35:55.485Z,7.13
2023-04-15T16:38:00.410Z,10.17
2023-04-15T16:40:03.741Z,5.23
2023-04-15T16:42:07.416Z,6.10
2023-04-15T16:44:10.876Z,4.80
2023-04-15T16:46:13.988Z,4.87
2023-04-15T16:48:17.142Z,4.77
2023-04-15T16:50:20.873Z,4.73
2023-04-15T16:52:24.022Z,4.80
2023-04-15T16:54:29.747Z,5.87
2023-04-15T16:56:32.840Z,4.90
2023-04-15T16:58:35.884Z,3.10
2023-04-15T17:00:39.228Z,3.23
2023-04-15T17:02:42.530Z,4.10
2023-04-15T17:04:45.841Z,3.10
2023-04-15T17:06:50.196Z,4.13
2023-04-15T17:08:53.402Z,4.40
2023-04-15T17:10:58.425Z,4.10
2023-04-15T17:13:01.520Z,3.97
2023-04-15T17:15:05.391Z,4.23
2023-04-15T17:17:10.794Z,3.50
2023-04-15T17:19:14.054Z,3.60
2023-04-15T17:21:24.026Z,5.73
2023-04-15T17:23:32.162Z,6.00
2023-04-15T17:25:35.356Z,4.93
2023-04-15T17:27:42.103Z,4.50
2023-04-15T17:29:51.447Z,4.10
2023-04-15T17:32:14.585Z,2.67
2023-04-15T17:34:49.743Z,3.10
2023-04-15T17:37:13.869Z,2.90
2023-04-15T17:39:36.972Z,3.03
2023-04-15T17:42:00.131Z,2.90
2023-04-15T17:44:25.386Z,2.90
2023-04-15T17:46:48.455Z,3.83
2023-04-15T17:49:12.014Z,3.90
2023-04-15T17:51:35.042Z,5.17
2023-04-15T17:54:04.279Z,4.37
2023-04-15T17:56:28.971Z,4.50
2023-04-15T17:58:53.096Z,8.17
2023-04-15T18:01:17.464Z,5.70
2023-04-15T18:03:40.543Z,6.20
2023-04-15T18:06:03.733Z,5.50
2023-04-15T18:08:26.784Z,4.00
2023-04-15T18:10:49.831Z,3.90
2023-04-15T18:13:12.937Z,6.33
2023-04-15T18:15:36.041Z,5.43
2023-04-15T18:18:01.360Z,4.17
2023-04-15T18:20:04.566Z,3.60
2023-04-15T18:22:08.244Z,6.00
2023-04-15T18:24:11.348Z,7.97
2023-04-15T18:26:14.575Z,5.73
2023-04-15T18:28:17.629Z,6.13
2023-04-15T18:30:20.807Z,5.40
2023-04-15T18:32:24.105Z,3.90
2023-04-15T18:34:28.751Z,2.40
2023-04-15T18:36:32.689Z,2.20
2023-04-15T18:38:35.780Z,2.00
2023-04-15T18:40:39.000Z,2.60
2023-04-15T18:42:42.117Z,3.50
2023-04-15T18:44:45.310Z,3.60
2023-04-15T18:46:49.676Z,3.23
2023-04-15T18:48:55.672Z,5.60
2023-04-15T18:51:00.224Z,6.87
2023-04-15T18:53:03.421Z,5.30
2023-04-15T18:55:07.439Z,3.87
2023-04-15T18:57:10.735Z,3.72
2023-04-15T18:59:29.118Z,4.37
2023-04-15T19:01:33.641Z,5.70
2023-04-15T19:03:36.844Z,5.60
2023-04-15T19:05:40.190Z,8.70
2023-04-15T19:07:44.699Z,8.43
2023-04-15T19:09:47.987Z,7.47
2023-04-15T19:11:51.184Z,7.77
2023-04-15T19:13:54.501Z,6.63
2023-04-15T19:15:57.701Z,7.03
2023-04-15T19:18:01.040Z,8.57
2023-04-15T19:20:04.713Z,7.73
2023-04-15T19:22:08.178Z,4.37
2023-04-15T19:24:13.128Z,5.00
2023-04-15T19:26:16.495Z,5.60
2023-04-15T19:28:19.718Z,4.87
2023-04-15T19:30:23.117Z,6.17
2023-04-15T19:32:26.323Z,13.10
2023-04-15T19:34:29.559Z,16.30
2023-04-15T19:36:33.376Z,16.63
2023-04-15T19:38:37.392Z,16.23
2023-04-15T19:40:42.124Z,17.67
2023-04-15T19:42:45.377Z,18.20
2023-04-15T19:44:48.588Z,11.70
2023-04-15T19:46:53.160Z,6.90
2023-04-15T19:48:56.482Z,6.30
2023-04-15T19:51:00.511Z,6.10
2023-04-15T19:53:03.826Z,5.30
2023-04-15T19:55:07.239Z,6.07
2023-04-15T19:57:11.786Z,6.20
2023-04-15T19:59:14.897Z,5.60
2023-04-15T20:01:17.960Z,5.13
2023-04-15T20:03:21.375Z,5.57
2023-04-15T20:05:24.924Z,5.07
2023-04-15T20:07:28.409Z,4.50
2023-04-15T20:09:31.949Z,3.60
2023-04-15T20:12:45.581Z,3.60
2023-04-15T20:14:00.010Z,3.40
2023-04-15T20:16:04.191Z,3.47
2023-04-15T20:18:07.445Z,3.90
2023-04-15T20:20:11.048Z,3.80
2023-04-15T20:22:14.220Z,5.03
2023-04-15T20:24:17.936Z,7.90
2023-04-15T20:26:21.650Z,3.63
2023-04-15T20:28:27.410Z,3.93
2023-04-15T20:30:31.962Z,4.57
2023-04-15T20:32:36.396Z,5.07
2023-04-15T20:34:40.096Z,4.90
2023-04-15T20:36:43.254Z,4.50
2023-04-15T20:38:46.479Z,4.30
2023-04-15T20:40:49.818Z,5.70
2023-04-15T20:42:53.227Z,5.10
2023-04-15T20:44:56.520Z,6.43
2023-04-15T20:47:01.068Z,4.43
2023-04-15T20:49:04.546Z,4.30
2023-04-15T20:51:07.888Z,4.93
2023-04-15T20:53:11.109Z,5.20
2023-04-15T20:55:14.360Z,4.70
2023-04-15T20:57:17.536Z,5.03
2023-04-15T20:59:20.864Z,5.27
2023-04-15T21:01:24.021Z,5.50
2023-04-15T21:03:28.596Z,5.80
2023-04-15T21:05:31.971Z,22.73
2023-04-15T21:07:35.083Z,20.23
2023-04-15T21:09:41.462Z,13.23
2023-04-15T21:12:00.339Z,6.30
2023-04-15T21:14:07.914Z,5.90
2023-04-15T21:16:10.990Z,5.80
2023-04-15T21:18:14.374Z,6.70
2023-04-15T21:20:19.142Z,6.47
2023-04-15T21:22:22.420Z,5.97
2023-04-15T21:24:25.841Z,6.80
2023-04-15T21:26:29.075Z,7.57
2023-04-15T21:28:32.148Z,7.20
2023-04-15T21:30:35.287Z,9.20
2023-04-15T21:32:38.481Z,7.40
2023-04-15T21:34:41.583Z,5.83
2023-04-15T21:36:46.088Z,5.83
2023-04-15T21:38:49.189Z,8.40
2023-04-15T21:40:52.280Z,8.90
2023-04-15T21:42:55.372Z,7.00
2023-04-15T21:44:58.504Z,7.03
2023-04-15T21:47:01.993Z,6.93
2023-04-15T21:49:07.041Z,7.00
2023-04-15T21:51:10.286Z,6.50
2023-04-15T21:53:14.722Z,6.30
2023-04-15T21:55:18.141Z,6.40
2023-04-15T21:57:21.283Z,6.13
2023-04-15T21:59:24.454Z,6.73
2023-04-15T22:01:27.903Z,7.23
2023-04-15T22:03:34.886Z,7.77
2023-04-15T22:05:38.232Z,7.13
2023-04-15T22:07:41.368Z,7.50
2023-04-15T22:09:46.451Z,8.10
2023-04-15T22:11:50.109Z,7.30
2023-04-15T22:13:53.287Z,6.70
2023-04-15T22:15:56.512Z,6.73
2023-04-15T22:17:59.670Z,7.40
2023-04-15T22:20:03.080Z,7.20
2023-04-15T22:22:06.441Z,7.27
2023-04-15T22:24:38.366Z,7.47
2023-04-15T22:26:33.880Z,7.20
2023-04-15T22:28:37.327Z,7.07
2023-04-15T22:30:41.139Z,7.23
2023-04-15T22:32:44.626Z,6.90
2023-04-15T22:34:47.881Z,7.47
2023-04-15T22:36:51.657Z,7.80
2023-04-15T22:38:54.731Z,6.40
2023-04-15T22:40:58.472Z,6.97
2023-04-15T22:43:03.043Z,7.40
2023-04-15T22:45:07.265Z,7.60
2023-04-15T22:47:10.404Z,7.17
2023-04-15T22:49:13.507Z,7.87
2023-04-15T22:51:22.615Z,7.80
2023-04-15T22:53:26.394Z,8.20
2023-04-15T22:55:29.414Z,7.77
2023-04-15T22:57:32.577Z,8.60
2023-04-15T22:59:37.078Z,7.63
2023-04-15T23:01:40.324Z,8.13
2023-04-15T23:03:55.822Z,7.77
2023-04-15T23:06:02.266Z,7.90
2023-04-15T23:08:05.400Z,8.30
2023-04-15T23:10:09.510Z,7.53
2023-04-15T23:12:15.022Z,8.40
2023-04-15T23:14:18.108Z,7.93
2023-04-15T23:16:22.750Z,8.03
2023-04-15T23:18:26.006Z,8.27
2023-04-15T23:20:29.138Z,7.70
2023-04-15T23:22:32.279Z,7.43
2023-04-15T23:24:35.381Z,7.27
2023-04-15T23:26:38.605Z,6.80
2023-04-15T23:28:41.953Z,6.40
2023-04-15T23:30:45.477Z,6.53
2023-04-15T23:32:49.969Z,6.63
2023-04-15T23:34:53.216Z,6.30
2023-04-15T23:36:56.195Z,6.10
2023-04-15T23:38:59.264Z,5.83
2023-04-15T23:41:02.359Z,7.60
2023-04-15T23:43:05.666Z,6.83
2023-04-15T23:45:10.336Z,6.33
2023-04-15T23:47:13.482Z,6.30
2023-04-15T23:49:20.150Z,6.40
2023-04-15T23:51:23.784Z,6.23
2023-04-15T23:53:26.940Z,6.30
2023-04-15T23:55:30.515Z,7.00
2023-04-15T23:57:33.553Z,6.10
2023-04-15T23:59:36.748Z,6.70
